createdAt,value
2023-02-03T00:01:44.696Z,3.43
2023-02-03T00:04:11.258Z,3.40
2023-02-03T00:06:37.840Z,3.44
2023-02-03T00:09:04.336Z,3.48
2023-02-03T00:11:31.272Z,3.49
2023-02-03T00:13:58.140Z,3.48
2023-02-03T00:16:24.727Z,3.43
2023-02-03T00:18:51.248Z,3.40
2023-02-03T00:21:17.778Z,3.40
2023-02-03T00:23:44.316Z,3.34
2023-02-03T00:26:15.108Z,3.32
2023-02-03T00:28:43.069Z,3.26
2023-02-03T00:31:22.010Z,3.26
2023-02-03T00:33:48.852Z,3.19
2023-02-03T00:36:17.322Z,3.01
2023-02-03T00:38:43.834Z,2.92
2023-02-03T00:41:10.354Z,3.05
2023-02-03T00:43:36.870Z,3.05
2023-02-03T00:46:03.743Z,3.13
2023-02-03T00:48:30.303Z,2.92
2023-02-03T00:50:58.579Z,3.09
2023-02-03T00:53:25.274Z,3.08
2023-02-03T00:55:52.220Z,3.05
2023-02-03T00:58:18.778Z,3.04
2023-02-03T01:00:45.345Z,3.11
2023-02-03T01:03:11.885Z,3.07
2023-02-03T01:05:39.697Z,3.16
2023-02-03T01:08:06.185Z,3.08
2023-02-03T01:10:32.709Z,3.06
2023-02-03T01:12:59.355Z,3.09
2023-02-03T01:15:27.828Z,3.05
2023-02-03T01:17:54.303Z,3.19
2023-02-03T01:20:21.646Z,3.30
2023-02-03T01:22:48.569Z,3.25
2023-02-03T01:25:15.200Z,3.34
2023-02-03T01:27:41.713Z,3.12
2023-02-03T01:30:08.773Z,3.27
2023-02-03T01:32:35.263Z,3.02
2023-02-03T01:35:03.935Z,2.96
2023-02-03T01:37:30.424Z,3.18
2023-02-03T01:39:57.611Z,3.24
2023-02-03T01:42:24.168Z,3.30
2023-02-03T01:44:52.335Z,3.29
2023-02-03T01:47:32.247Z,3.32
2023-02-03T01:50:09.254Z,3.18
2023-02-03T01:52:36.683Z,3.21
2023-02-03T01:55:05.919Z,3.31
2023-02-03T01:57:37.042Z,3.21
2023-02-03T02:00:06.179Z,3.24
2023-02-03T02:02:40.443Z,3.24
2023-02-03T02:05:30.196Z,3.11
2023-02-03T02:07:58.823Z,3.24
2023-02-03T02:10:26.116Z,3.27
2023-02-03T02:12:55.934Z,3.28
2023-02-03T02:15:31.681Z,3.16
2023-02-03T02:18:12.802Z,3.09
2023-02-03T02:20:58.163Z,2.93
2023-02-03T02:23:41.833Z,2.86
2023-02-03T02:26:23.461Z,3.06
2023-02-03T02:29:07.378Z,2.79
2023-02-03T02:32:11.745Z,2.92
2023-02-03T02:35:16.707Z,3.00
2023-02-03T02:38:00.580Z,2.83
2023-02-03T02:40:49.681Z,2.98
2023-02-03T02:43:41.292Z,2.86
2023-02-03T02:46:14.683Z,2.93
2023-02-03T02:49:03.696Z,2.99
2023-02-03T02:51:31.868Z,3.00
2023-02-03T02:54:01.199Z,3.06
2023-02-03T02:56:29.106Z,2.83
2023-02-03T02:58:57.371Z,2.79
2023-02-03T03:01:24.001Z,2.89
2023-02-03T03:03:50.571Z,2.90
2023-02-03T03:06:25.150Z,2.78
2023-02-03T03:09:06.379Z,2.76
2023-02-03T03:11:33.996Z,2.67
2023-02-03T03:14:01.069Z,2.84
2023-02-03T03:16:30.034Z,2.79
2023-02-03T03:18:58.210Z,2.92
2023-02-03T03:21:31.344Z,2.92
2023-02-03T03:23:59.881Z,2.92
2023-02-03T03:26:59.877Z,3.01
2023-02-03T03:29:57.793Z,3.04
2023-02-03T03:32:24.715Z,2.96
2023-02-03T03:34:51.522Z,3.01
2023-02-03T03:37:23.383Z,2.71
2023-02-03T03:39:58.085Z,2.88
2023-02-03T03:42:33.150Z,2.89
2023-02-03T03:45:03.556Z,3.03
2023-02-03T03:47:47.901Z,3.04
2023-02-03T03:50:19.152Z,2.99
2023-02-03T03:52:46.040Z,3.12
2023-02-03T03:55:14.378Z,3.19
2023-02-03T03:57:44.930Z,3.24
2023-02-03T04:00:14.717Z,3.27
2023-02-03T04:02:42.591Z,3.39
2023-02-03T04:05:10.529Z,3.41
2023-02-03T04:07:43.067Z,3.39
2023-02-03T04:10:18.952Z,3.45
2023-02-03T04:12:45.467Z,3.46
2023-02-03T04:15:11.962Z,3.51
2023-02-03T04:17:38.511Z,3.55
2023-02-03T04:20:05.612Z,3.59
2023-02-03T04:22:32.167Z,3.61
2023-02-03T04:24:59.069Z,3.48
2023-02-03T04:27:26.337Z,3.55
2023-02-03T04:29:52.826Z,3.64
2023-02-03T04:32:19.731Z,3.71
2023-02-03T04:34:46.787Z,3.80
2023-02-03T04:37:13.283Z,3.85
2023-02-03T04:39:39.781Z,3.88
2023-02-03T04:42:06.308Z,3.95
2023-02-03T04:44:32.799Z,4.01
2023-02-03T04:46:59.284Z,4.09
2023-02-03T04:49:25.746Z,4.16
2023-02-03T04:51:52.547Z,4.17
2023-02-03T04:54:19.099Z,4.31
2023-02-03T04:56:45.788Z,4.40
2023-02-03T04:59:12.501Z,4.49
2023-02-03T05:01:39.001Z,4.57
2023-02-03T05:04:05.485Z,4.67
2023-02-03T05:06:34.588Z,4.78
2023-02-03T05:09:01.089Z,4.91
2023-02-03T05:11:28.154Z,5.00
2023-02-03T05:13:54.849Z,5.09
2023-02-03T05:16:21.599Z,5.18
2023-02-03T05:18:48.175Z,5.26
2023-02-03T05:21:14.747Z,5.31
2023-02-03T05:23:41.536Z,5.38
2023-02-03T05:26:08.008Z,5.48
2023-02-03T05:28:34.484Z,5.60
2023-02-03T05:31:02.102Z,5.69
2023-02-03T05:33:29.206Z,5.79
2023-02-03T05:35:55.885Z,5.88
2023-02-03T05:38:22.809Z,6.01
2023-02-03T05:41:08.457Z,6.06
2023-02-03T05:43:35.539Z,6.15
2023-02-03T05:46:03.154Z,6.26
2023-02-03T05:48:29.972Z,6.27
2023-02-03T05:50:56.851Z,6.36
2023-02-03T05:53:23.653Z,6.46
2023-02-03T05:55:50.177Z,6.41
2023-02-03T05:58:16.663Z,6.57
2023-02-03T06:00:43.477Z,6.59
2023-02-03T06:03:10.028Z,6.69
2023-02-03T06:05:41.379Z,6.74
2023-02-03T06:08:08.812Z,6.82
2023-02-03T06:10:35.455Z,6.76
2023-02-03T06:13:13.009Z,6.79
2023-02-03T06:15:39.832Z,6.81
2023-02-03T06:18:06.634Z,6.81
2023-02-03T06:20:33.176Z,6.91
2023-02-03T06:22:59.738Z,6.94
2023-02-03T06:25:27.295Z,7.03
2023-02-03T06:27:53.857Z,7.05
2023-02-03T06:30:21.254Z,7.14
2023-02-03T06:32:48.409Z,7.06
2023-02-03T06:35:14.960Z,7.20
2023-02-03T06:37:41.497Z,7.23
2023-02-03T06:40:08.336Z,7.27
2023-02-03T06:42:34.930Z,7.29
2023-02-03T06:45:01.583Z,7.37
2023-02-03T06:47:28.377Z,7.43
2023-02-03T06:49:54.958Z,7.45
2023-02-03T06:52:21.541Z,7.53
2023-02-03T06:54:48.097Z,7.55
2023-02-03T06:57:14.679Z,7.62
2023-02-03T06:59:41.335Z,7.63
2023-02-03T07:02:07.845Z,7.67
2023-02-03T07:04:34.375Z,7.66
2023-02-03T07:07:00.859Z,7.70
2023-02-03T07:09:27.369Z,7.67
2023-02-03T07:11:53.841Z,7.74
2023-02-03T07:14:20.380Z,7.65
2023-02-03T07:16:46.900Z,7.68
2023-02-03T07:19:13.363Z,7.66
2023-02-03T07:21:39.944Z,7.68
2023-02-03T07:24:06.736Z,7.70
2023-02-03T07:26:33.752Z,7.73
2023-02-03T07:29:00.829Z,7.74
2023-02-03T07:31:27.521Z,7.71
2023-02-03T07:33:54.085Z,7.75
2023-02-03T07:36:20.576Z,7.79
2023-02-03T07:38:49.869Z,7.81
2023-02-03T07:41:18.083Z,7.83
2023-02-03T07:43:47.928Z,7.84
2023-02-03T07:46:14.616Z,7.81
2023-02-03T07:48:41.134Z,7.84
2023-02-03T07:51:07.626Z,7.78
2023-02-03T07:53:34.234Z,7.85
2023-02-03T07:56:04.566Z,7.87
2023-02-03T07:58:32.787Z,7.89
2023-02-03T08:01:00.056Z,7.85
2023-02-03T08:03:28.497Z,7.86
2023-02-03T08:05:56.918Z,7.91
2023-02-03T08:08:23.493Z,7.86
2023-02-03T08:10:50.322Z,7.80
2023-02-03T08:13:18.006Z,7.77
2023-02-03T08:15:44.457Z,7.81
2023-02-03T08:18:14.186Z,7.82
2023-02-03T08:20:40.979Z,7.87
2023-02-03T08:23:07.584Z,7.88
2023-02-03T08:25:34.177Z,7.86
2023-02-03T08:28:00.803Z,7.84
2023-02-03T08:30:27.689Z,7.85
2023-02-03T08:32:54.639Z,7.92
2023-02-03T08:35:21.632Z,7.93
2023-02-03T08:37:51.524Z,7.94
2023-02-03T08:40:18.554Z,7.99
2023-02-03T08:42:45.096Z,8.01
2023-02-03T08:45:11.631Z,7.96
2023-02-03T08:47:39.208Z,7.97
2023-02-03T08:50:07.200Z,8.01
2023-02-03T08:52:33.690Z,8.01
2023-02-03T08:55:00.797Z,8.02
2023-02-03T08:57:27.617Z,8.03
2023-02-03T08:59:54.905Z,8.01
2023-02-03T09:02:21.418Z,8.02
2023-02-03T09:04:49.031Z,8.07
2023-02-03T09:07:16.792Z,8.04
2023-02-03T09:09:43.330Z,8.04
2023-02-03T09:12:11.607Z,8.04
2023-02-03T09:14:40.871Z,8.08
2023-02-03T09:17:08.426Z,8.12
2023-02-03T09:19:36.567Z,8.11
2023-02-03T09:22:03.522Z,8.08
2023-02-03T09:24:30.666Z,8.14
2023-02-03T09:26:57.561Z,8.09
2023-02-03T09:29:24.085Z,8.12
2023-02-03T09:31:53.747Z,8.13
2023-02-03T09:34:21.118Z,8.12
2023-02-03T09:36:47.740Z,8.16
2023-02-03T09:39:14.871Z,8.14
2023-02-03T09:42:11.988Z,8.18
2023-02-03T09:44:46.160Z,8.18
2023-02-03T09:47:16.302Z,8.26
2023-02-03T09:49:52.285Z,8.21
2023-02-03T09:52:27.197Z,8.27
2023-02-03T09:55:19.002Z,8.30
2023-02-03T09:57:57.081Z,8.28
2023-02-03T10:00:30.620Z,8.30
2023-02-03T10:03:06.347Z,8.30
2023-02-03T10:05:38.731Z,8.29
2023-02-03T10:08:43.073Z,8.27
2023-02-03T10:11:36.167Z,8.33
2023-02-03T10:14:40.393Z,8.36
2023-02-03T10:17:30.311Z,8.40
2023-02-03T10:20:01.456Z,8.33
2023-02-03T10:22:28.547Z,8.26
2023-02-03T10:24:59.918Z,8.35
2023-02-03T10:27:28.022Z,8.36
2023-02-03T10:30:05.468Z,8.42
2023-02-03T10:32:32.039Z,8.39
2023-02-03T10:34:58.581Z,8.47
2023-02-03T10:37:32.008Z,8.42
2023-02-03T10:39:59.980Z,8.38
2023-02-03T10:42:48.397Z,8.39
2023-02-03T10:45:15.003Z,8.37
2023-02-03T10:47:46.787Z,8.43
2023-02-03T10:50:22.478Z,8.41
2023-02-03T10:52:49.005Z,8.40
2023-02-03T10:55:22.782Z,8.34
2023-02-03T10:57:49.442Z,8.13
2023-02-03T11:00:32.639Z,8.07
2023-02-03T11:03:05.494Z,7.98
2023-02-03T11:05:32.121Z,7.87
2023-02-03T11:07:58.660Z,7.96
2023-02-03T11:10:31.028Z,8.04
2023-02-03T11:13:23.072Z,8.07
2023-02-03T11:15:56.826Z,8.25
2023-02-03T11:18:51.727Z,8.14
2023-02-03T11:21:20.429Z,8.07
2023-02-03T11:23:57.497Z,7.96
2023-02-03T11:26:30.654Z,7.92
2023-02-03T11:28:59.372Z,7.98
2023-02-03T11:31:34.775Z,7.98
2023-02-03T11:34:07.197Z,7.86
2023-02-03T11:36:35.038Z,8.00
2023-02-03T11:39:27.254Z,7.80
2023-02-03T11:41:54.345Z,7.94
2023-02-03T11:44:29.168Z,7.98
2023-02-03T11:47:04.112Z,7.96
2023-02-03T11:49:52.365Z,8.11
2023-02-03T11:52:38.037Z,8.36
2023-02-03T11:55:36.381Z,8.60
2023-02-03T11:58:35.262Z,8.70
2023-02-03T12:01:23.557Z,8.77
2023-02-03T12:03:57.356Z,8.81
2023-02-03T12:06:39.230Z,8.73
2023-02-03T12:09:29.184Z,8.86
2023-02-03T12:11:55.569Z,8.84
2023-02-03T12:14:47.432Z,8.89
2023-02-03T12:17:31.630Z,9.21
2023-02-03T12:20:21.583Z,9.23
2023-02-03T12:23:13.679Z,9.30
2023-02-03T12:25:56.743Z,9.54
2023-02-03T12:28:35.838Z,9.58
2023-02-03T12:31:09.443Z,9.54
2023-02-03T12:33:43.471Z,9.66
2023-02-03T12:36:12.838Z,9.71
2023-02-03T12:38:46.913Z,9.76
2023-02-03T12:41:17.054Z,10.01
2023-02-03T12:43:50.859Z,9.94
2023-02-03T12:46:31.241Z,10.02
2023-02-03T12:49:18.617Z,10.03
2023-02-03T12:51:54.666Z,10.14
2023-02-03T12:54:39.272Z,10.10
2023-02-03T12:57:24.141Z,9.84
2023-02-03T12:59:59.166Z,9.78
2023-02-03T13:02:29.000Z,9.62
2023-02-03T13:05:01.909Z,9.36
2023-02-03T13:07:48.391Z,9.04
2023-02-03T13:10:21.602Z,8.47
2023-02-03T13:12:51.986Z,8.34
2023-02-03T13:15:18.354Z,8.29
2023-02-03T13:17:55.392Z,7.86
2023-02-03T13:20:29.041Z,7.55
2023-02-03T13:22:55.756Z,7.00
2023-02-03T13:25:29.539Z,7.17
2023-02-03T13:28:17.601Z,6.68
2023-02-03T13:31:21.899Z,6.47
2023-02-03T13:34:12.870Z,6.42
2023-02-03T13:36:58.303Z,6.54
2023-02-03T13:39:50.616Z,6.67
2023-02-03T13:42:27.014Z,6.77
2023-02-03T13:45:17.274Z,6.94
2023-02-03T13:47:50.058Z,6.97
2023-02-03T13:50:25.164Z,7.16
2023-02-03T13:53:01.137Z,7.15
2023-02-03T13:55:39.661Z,7.00
2023-02-03T13:58:18.361Z,6.88
2023-02-03T14:00:44.726Z,6.97
2023-02-03T14:03:26.534Z,7.14
2023-02-03T14:05:54.954Z,7.14
2023-02-03T14:08:30.416Z,7.20
2023-02-03T14:11:34.320Z,7.15
2023-02-03T14:14:06.917Z,7.12
2023-02-03T14:16:48.078Z,7.26
2023-02-03T14:19:29.832Z,7.28
2023-02-03T14:22:05.726Z,7.41
2023-02-03T14:24:33.394Z,7.44
2023-02-03T14:27:02.020Z,7.54
2023-02-03T14:29:30.607Z,7.52
2023-02-03T14:32:00.782Z,7.54
2023-02-03T14:34:41.969Z,7.42
2023-02-03T14:37:12.664Z,7.31
2023-02-03T14:39:55.328Z,7.51
2023-02-03T14:42:45.520Z,7.63
2023-02-03T14:45:31.694Z,7.70
2023-02-03T14:48:11.650Z,7.79
2023-02-03T14:50:48.387Z,7.91
2023-02-03T14:53:45.477Z,7.87
2023-02-03T14:56:31.310Z,7.94
2023-02-03T14:59:02.593Z,8.00
2023-02-03T15:01:37.859Z,7.99
2023-02-03T15:04:13.340Z,7.93
2023-02-03T15:06:45.455Z,7.98
2023-02-03T15:09:35.084Z,7.86
2023-02-03T15:12:01.723Z,7.96
2023-02-03T15:14:32.584Z,7.95
2023-02-03T15:17:01.352Z,7.95
2023-02-03T15:19:36.089Z,7.94
2023-02-03T15:22:02.749Z,7.97
2023-02-03T15:24:36.045Z,7.83
2023-02-03T15:27:02.677Z,7.87
2023-02-03T15:29:32.931Z,7.76
2023-02-03T15:32:03.734Z,7.68
2023-02-03T15:34:36.152Z,7.67
2023-02-03T15:37:09.459Z,7.73
2023-02-03T15:39:42.962Z,7.69
2023-02-03T15:42:31.144Z,7.61
2023-02-03T15:45:02.775Z,7.70
2023-02-03T15:47:34.331Z,7.67
2023-02-03T15:50:24.900Z,7.54
2023-02-03T15:52:52.663Z,7.71
2023-02-03T15:55:28.465Z,7.63
2023-02-03T15:57:55.270Z,7.61
2023-02-03T16:00:32.521Z,7.71
2023-02-03T16:03:00.167Z,7.72
2023-02-03T16:05:30.268Z,7.61
2023-02-03T16:07:57.228Z,7.53
2023-02-03T16:10:29.991Z,7.43
2023-02-03T16:13:20.138Z,7.57
2023-02-03T16:16:14.418Z,7.72
2023-02-03T16:18:41.421Z,7.73
2023-02-03T16:21:25.638Z,7.63
2023-02-03T16:23:52.287Z,7.67
2023-02-03T16:26:20.768Z,7.60
2023-02-03T16:29:15.708Z,7.52
2023-02-03T16:32:04.135Z,7.57
2023-02-03T16:34:49.481Z,7.56
2023-02-03T16:37:45.373Z,7.62
2023-02-03T16:40:32.033Z,7.56
2023-02-03T16:43:17.280Z,7.67
2023-02-03T16:46:02.656Z,7.68
2023-02-03T16:48:47.793Z,7.53
2023-02-03T16:51:17.172Z,7.61
2023-02-03T16:53:48.554Z,7.60
2023-02-03T16:56:21.130Z,7.61
2023-02-03T16:58:52.264Z,7.72
2023-02-03T17:01:19.452Z,7.80
2023-02-03T17:03:56.428Z,7.86
2023-02-03T17:06:23.293Z,7.85
2023-02-03T17:08:49.801Z,7.91
2023-02-03T17:11:19.459Z,7.95
2023-02-03T17:13:46.625Z,7.97
2023-02-03T17:16:16.731Z,7.92
2023-02-03T17:18:43.686Z,7.93
2023-02-03T17:21:13.951Z,7.83
2023-02-03T17:23:40.704Z,7.87
2023-02-03T17:26:07.558Z,7.90
2023-02-03T17:28:34.762Z,7.94
2023-02-03T17:31:03.843Z,7.95
2023-02-03T17:33:31.899Z,7.94
2023-02-03T17:36:16.026Z,7.80
2023-02-03T17:55:16.254Z,7.67
2023-02-03T17:57:42.772Z,7.75
2023-02-03T18:00:10.658Z,7.83
2023-02-03T18:02:40.333Z,7.83
2023-02-03T18:05:07.247Z,7.76
2023-02-03T18:07:33.881Z,7.76
2023-02-03T18:10:00.367Z,7.83
2023-02-03T18:12:27.310Z,7.68
2023-02-03T18:14:53.784Z,7.76
2023-02-03T18:17:20.229Z,7.86
2023-02-03T18:19:51.937Z,7.76
2023-02-03T18:22:22.113Z,7.81
2023-02-03T18:24:52.223Z,7.83
2023-02-03T18:27:19.278Z,7.88
2023-02-03T18:29:46.791Z,7.71
2023-02-03T18:32:14.122Z,7.76
2023-02-03T18:34:40.562Z,7.68
2023-02-03T18:37:07.264Z,7.84
2023-02-03T18:39:33.748Z,7.83
2023-02-03T18:42:00.352Z,7.76
2023-02-03T18:44:27.420Z,7.62
2023-02-03T18:46:54.379Z,7.79
2023-02-03T18:49:21.123Z,7.69
2023-02-03T18:51:47.617Z,7.69
2023-02-03T18:54:14.111Z,7.77
2023-02-03T18:56:40.621Z,7.85
2023-02-03T18:59:09.745Z,7.79
2023-02-03T19:01:36.649Z,7.77
2023-02-03T19:04:03.373Z,7.88
2023-02-03T19:06:31.339Z,7.90
2023-02-03T19:08:58.738Z,7.81
2023-02-03T19:11:25.695Z,7.76
2023-02-03T19:13:52.305Z,7.52
2023-02-03T19:16:19.676Z,7.67
2023-02-03T19:18:46.959Z,7.58
2023-02-03T19:21:14.051Z,7.50
2023-02-03T19:23:41.252Z,7.33
2023-02-03T19:26:08.063Z,7.56
2023-02-03T19:28:35.427Z,7.47
2023-02-03T19:31:08.344Z,7.40
2023-02-03T19:33:35.916Z,7.35
2023-02-03T19:36:03.151Z,7.55
2023-02-03T19:38:29.693Z,7.54
2023-02-03T19:40:56.695Z,7.50
2023-02-03T19:43:24.585Z,7.46
2023-02-03T19:45:51.555Z,7.49
2023-02-03T19:48:18.346Z,7.32
2023-02-03T19:50:46.978Z,7.36
2023-02-03T19:53:14.803Z,7.47
2023-02-03T19:55:45.147Z,7.41
2023-02-03T19:58:12.764Z,7.26
2023-02-03T20:00:39.584Z,7.15
2023-02-03T20:03:06.045Z,7.13
2023-02-03T20:05:33.744Z,7.21
2023-02-03T20:08:00.303Z,7.22
2023-02-03T20:10:27.027Z,7.30
2023-02-03T20:12:54.276Z,7.31
2023-02-03T20:15:21.616Z,7.10
2023-02-03T20:17:48.179Z,7.21
2023-02-03T20:20:16.361Z,7.00
2023-02-03T20:22:43.011Z,7.15
2023-02-03T20:25:09.749Z,7.17
2023-02-03T20:27:36.283Z,7.19
2023-02-03T20:30:04.037Z,7.11
2023-02-03T20:32:30.623Z,6.97
2023-02-03T20:34:57.714Z,6.96
2023-02-03T20:37:24.215Z,7.13
2023-02-03T20:39:50.955Z,7.01
2023-02-03T20:42:18.005Z,7.07
2023-02-03T20:44:45.090Z,7.03
2023-02-03T20:47:21.293Z,7.00
2023-02-03T20:49:49.429Z,7.01
2023-02-03T20:52:20.830Z,6.96
2023-02-03T20:54:47.959Z,6.95
2023-02-03T20:57:19.210Z,6.91
2023-02-03T20:59:46.283Z,6.83
2023-02-03T21:02:30.985Z,6.76
2023-02-03T21:04:57.717Z,6.85
2023-02-03T21:07:27.454Z,6.89
2023-02-03T21:09:54.705Z,6.79
2023-02-03T21:12:21.449Z,6.78
2023-02-03T21:14:49.008Z,6.71
2023-02-03T21:17:33.484Z,6.75
2023-02-03T21:20:00.020Z,6.74
2023-02-03T21:22:27.837Z,6.87
2023-02-03T21:24:59.893Z,6.72
2023-02-03T21:27:32.087Z,6.52
2023-02-03T21:30:00.162Z,6.40
2023-02-03T21:32:40.339Z,6.51
2023-02-03T21:35:29.893Z,6.33
2023-02-03T21:38:02.497Z,6.42
2023-02-03T21:40:33.757Z,6.41
2023-02-03T21:43:02.068Z,6.15
2023-02-03T21:45:34.250Z,5.98
2023-02-03T21:48:02.073Z,5.99
2023-02-03T21:50:36.494Z,5.99
2023-02-03T21:53:23.774Z,5.71
2023-02-03T21:55:50.331Z,5.74
2023-02-03T21:58:25.386Z,5.60
2023-02-03T22:00:53.744Z,5.60
2023-02-03T22:03:39.593Z,5.25
2023-02-03T22:06:08.855Z,5.19
2023-02-03T22:08:41.045Z,5.12
2023-02-03T22:11:07.949Z,5.13
2023-02-03T22:13:34.497Z,5.07
2023-02-03T22:16:01.428Z,5.04
2023-02-03T22:18:27.924Z,5.06
2023-02-03T22:20:55.209Z,5.00
2023-02-03T22:23:21.704Z,4.96
2023-02-03T22:25:48.469Z,4.94
2023-02-03T22:28:15.346Z,4.80
2023-02-03T22:30:42.245Z,4.80
2023-02-03T22:33:08.819Z,4.88
2023-02-03T22:35:35.300Z,4.91
2023-02-03T22:38:01.845Z,4.88
2023-02-03T22:40:28.894Z,4.63
2023-02-03T22:42:55.696Z,4.67
2023-02-03T22:45:22.359Z,4.77
2023-02-03T22:47:48.926Z,4.84
2023-02-03T22:50:17.494Z,4.76
2023-02-03T22:52:46.967Z,4.79
2023-02-03T22:55:13.512Z,4.74
2023-02-03T22:57:41.232Z,4.68
2023-02-03T23:00:12.136Z,4.64
2023-02-03T23:02:39.645Z,4.64
2023-02-03T23:05:09.978Z,4.63
2023-02-03T23:07:37.309Z,4.68
2023-02-03T23:10:05.085Z,4.62
2023-02-03T23:12:31.730Z,4.65
2023-02-03T23:14:58.210Z,4.61
2023-02-03T23:17:24.738Z,4.49
2023-02-03T23:19:51.271Z,4.51
2023-02-03T23:22:17.923Z,4.45
2023-02-03T23:24:44.470Z,4.47
2023-02-03T23:27:11.370Z,4.47
2023-02-03T23:29:38.336Z,4.49
2023-02-03T23:32:05.873Z,4.56
2023-02-03T23:34:51.261Z,4.45
2023-02-03T23:37:17.903Z,4.41
2023-02-03T23:39:44.409Z,4.50
2023-02-03T23:42:11.054Z,4.51
2023-02-03T23:44:37.560Z,4.48
2023-02-03T23:47:04.118Z,4.52
2023-02-03T23:49:31.503Z,4.60
2023-02-03T23:51:58.354Z,4.62
2023-02-03T23:54:25.508Z,4.62
2023-02-03T23:56:52.756Z,4.63
2023-02-03T23:59:19.696Z,4.67
